sensor_id;sensor_type;location;lat;lon;timestamp;pressure;altitude;pressure_sealevel;temperature;humidity
71996;BME280;59862;47.732;7.346;2022-08-16T00:01:34;97429.93;;;18.74;72.45
71996;BME280;59862;47.732;7.346;2022-08-16T00:04:02;97442.02;;;18.79;72.52
71996;BME280;59862;47.732;7.346;2022-08-16T00:06:29;97425.67;;;18.81;72.50
71996;BME280;59862;47.732;7.346;2022-08-16T00:08:57;97440.16;;;18.88;72.45
71996;BME280;59862;47.732;7.346;2022-08-16T00:11:24;97439.73;;;18.89;72.65
71996;BME280;59862;47.732;7.346;2022-08-16T00:13:52;97439.00;;;18.82;72.96
71996;BME280;59862;47.732;7.346;2022-08-16T00:16:19;97432.45;;;18.80;73.23
71996;BME280;59862;47.732;7.346;2022-08-16T00:18:47;97435.38;;;18.85;73.21
71996;BME280;59862;47.732;7.346;2022-08-16T00:21:15;97448.25;;;18.94;72.98
71996;BME280;59862;47.732;7.346;2022-08-16T00:23:43;97443.80;;;19.00;72.78
71996;BME280;59862;47.732;7.346;2022-08-16T00:26:10;97443.19;;;19.00;72.71
71996;BME280;59862;47.732;7.346;2022-08-16T00:28:38;97450.53;;;19.03;72.68
71996;BME280;59862;47.732;7.346;2022-08-16T00:31:06;97448.58;;;18.99;72.87
71996;BME280;59862;47.732;7.346;2022-08-16T00:33:33;97443.46;;;18.94;72.98
71996;BME280;59862;47.732;7.346;2022-08-16T00:36:01;97439.19;;;18.83;73.61
71996;BME280;59862;47.732;7.346;2022-08-16T00:38:28;97439.11;;;18.71;74.06
71996;BME280;59862;47.732;7.346;2022-08-16T00:40:56;97433.09;;;18.76;74.34
71996;BME280;59862;47.732;7.346;2022-08-16T00:43:28;97432.77;;;18.89;73.92
71996;BME280;59862;47.732;7.346;2022-08-16T00:46:04;97430.73;;;18.93;73.72
71996;BME280;59862;47.732;7.346;2022-08-16T00:48:30;97432.92;;;18.94;73.77
71996;BME280;59862;47.732;7.346;2022-08-16T00:50:59;97432.13;;;18.93;73.79
71996;BME280;59862;47.732;7.346;2022-08-16T00:53:27;97423.21;;;18.90;73.84
71996;BME280;59862;47.732;7.346;2022-08-16T00:55:58;97423.45;;;18.84;74.02
71996;BME280;59862;47.732;7.346;2022-08-16T00:58:28;97418.75;;;18.78;74.26
71996;BME280;59862;47.732;7.346;2022-08-16T01:00:56;97427.41;;;18.68;74.48
71996;BME280;59862;47.732;7.346;2022-08-16T01:03:26;97413.98;;;18.56;74.80
71996;BME280;59862;47.732;7.346;2022-08-16T01:05:55;97419.70;;;18.42;75.44
71996;BME280;59862;47.732;7.346;2022-08-16T01:08:23;97417.23;;;18.28;75.70
71996;BME280;59862;47.732;7.346;2022-08-16T01:10:52;97418.92;;;18.15;76.17
71996;BME280;59862;47.732;7.346;2022-08-16T01:13:26;97426.16;;;18.05;76.61
71996;BME280;59862;47.732;7.346;2022-08-16T01:16:00;97424.03;;;17.98;77.04
71996;BME280;59862;47.732;7.346;2022-08-16T01:18:30;97421.03;;;17.74;78.24
71996;BME280;59862;47.732;7.346;2022-08-16T01:21:09;97428.62;;;17.63;79.06
71996;BME280;59862;47.732;7.346;2022-08-16T01:26:02;97423.53;;;17.48;80.63
71996;BME280;59862;47.732;7.346;2022-08-16T01:28:31;97426.55;;;17.41;81.18
71996;BME280;59862;47.732;7.346;2022-08-16T01:30:59;97426.95;;;17.40;81.69
71996;BME280;59862;47.732;7.346;2022-08-16T01:33:27;97429.94;;;17.37;81.87
71996;BME280;59862;47.732;7.346;2022-08-16T01:36:01;97432.34;;;17.35;82.21
71996;BME280;59862;47.732;7.346;2022-08-16T01:38:37;97431.39;;;17.27;82.63
71996;BME280;59862;47.732;7.346;2022-08-16T01:41:07;97431.42;;;17.20;83.08
71996;BME280;59862;47.732;7.346;2022-08-16T01:43:37;97433.63;;;17.17;83.21
71996;BME280;59862;47.732;7.346;2022-08-16T01:46:16;97426.30;;;17.11;83.41
71996;BME280;59862;47.732;7.346;2022-08-16T01:48:36;97427.11;;;17.08;83.53
71996;BME280;59862;47.732;7.346;2022-08-16T01:51:04;97431.30;;;17.04;83.84
71996;BME280;59862;47.732;7.346;2022-08-16T01:53:31;97426.73;;;17.06;83.68
71996;BME280;59862;47.732;7.346;2022-08-16T01:55:59;97435.27;;;17.03;83.75
71996;BME280;59862;47.732;7.346;2022-08-16T01:58:27;97427.73;;;17.04;83.55
71996;BME280;59862;47.732;7.346;2022-08-16T02:00:54;97424.97;;;17.00;83.51
71996;BME280;59862;47.732;7.346;2022-08-16T02:03:22;97431.10;;;17.03;83.40
71996;BME280;59862;47.732;7.346;2022-08-16T02:05:50;97427.95;;;16.98;83.51
71996;BME280;59862;47.732;7.346;2022-08-16T02:08:17;97422.80;;;16.96;83.32
71996;BME280;59862;47.732;7.346;2022-08-16T02:10:46;97427.55;;;16.99;83.30
71996;BME280;59862;47.732;7.346;2022-08-16T02:13:13;97427.14;;;17.01;83.15
71996;BME280;59862;47.732;7.346;2022-08-16T02:15:41;97428.52;;;17.04;82.94
71996;BME280;59862;47.732;7.346;2022-08-16T02:18:08;97429.55;;;16.95;82.95
71996;BME280;59862;47.732;7.346;2022-08-16T02:20:38;97428.94;;;16.99;82.72
71996;BME280;59862;47.732;7.346;2022-08-16T02:23:07;97420.83;;;16.93;82.62
71996;BME280;59862;47.732;7.346;2022-08-16T02:25:35;97419.23;;;16.89;82.28
71996;BME280;59862;47.732;7.346;2022-08-16T02:28:02;97421.02;;;16.87;82.27
71996;BME280;59862;47.732;7.346;2022-08-16T02:30:32;97426.57;;;16.87;82.35
71996;BME280;59862;47.732;7.346;2022-08-16T02:32:59;97430.93;;;16.88;82.29
71996;BME280;59862;47.732;7.346;2022-08-16T02:35:27;97430.14;;;16.88;82.24
71996;BME280;59862;47.732;7.346;2022-08-16T02:37:55;97431.33;;;16.87;82.14
71996;BME280;59862;47.732;7.346;2022-08-16T02:40:24;97437.48;;;16.86;82.13
71996;BME280;59862;47.732;7.346;2022-08-16T02:42:53;97436.30;;;16.87;82.20
71996;BME280;59862;47.732;7.346;2022-08-16T02:45:23;97435.70;;;16.88;82.29
71996;BME280;59862;47.732;7.346;2022-08-16T02:47:52;97429.77;;;16.78;82.43
71996;BME280;59862;47.732;7.346;2022-08-16T02:50:20;97437.30;;;16.82;82.38
71996;BME280;59862;47.732;7.346;2022-08-16T02:52:48;97433.72;;;16.85;82.25
71996;BME280;59862;47.732;7.346;2022-08-16T02:55:16;97426.00;;;16.80;82.45
71996;BME280;59862;47.732;7.346;2022-08-16T02:57:44;97426.20;;;16.78;82.50
71996;BME280;59862;47.732;7.346;2022-08-16T03:00:14;97418.68;;;16.75;82.70
71996;BME280;59862;47.732;7.346;2022-08-16T03:02:43;97419.27;;;16.74;82.74
71996;BME280;59862;47.732;7.346;2022-08-16T03:05:13;97429.20;;;16.72;82.79
71996;BME280;59862;47.732;7.346;2022-08-16T03:07:42;97419.88;;;16.70;82.86
71996;BME280;59862;47.732;7.346;2022-08-16T03:10:11;97425.23;;;16.73;82.73
71996;BME280;59862;47.732;7.346;2022-08-16T03:12:40;97432.57;;;16.71;82.72
71996;BME280;59862;47.732;7.346;2022-08-16T03:15:12;97424.05;;;16.70;82.53
71996;BME280;59862;47.732;7.346;2022-08-16T03:17:41;97418.89;;;16.69;82.50
71996;BME280;59862;47.732;7.346;2022-08-16T03:20:11;97416.11;;;16.72;82.03
71996;BME280;59862;47.732;7.346;2022-08-16T03:22:40;97411.34;;;16.73;82.04
71996;BME280;59862;47.732;7.346;2022-08-16T03:25:11;97409.34;;;16.77;81.82
71996;BME280;59862;47.732;7.346;2022-08-16T03:27:39;97407.96;;;16.77;81.73
71996;BME280;59862;47.732;7.346;2022-08-16T03:30:17;97407.55;;;16.82;81.51
71996;BME280;59862;47.732;7.346;2022-08-16T03:32:46;97409.77;;;16.72;81.38
71996;BME280;59862;47.732;7.346;2022-08-16T03:35:17;97404.60;;;16.74;81.38
71996;BME280;59862;47.732;7.346;2022-08-16T03:37:47;97403.82;;;16.70;81.42
71996;BME280;59862;47.732;7.346;2022-08-16T03:40:15;97394.89;;;16.70;81.33
71996;BME280;59862;47.732;7.346;2022-08-16T03:42:44;97406.02;;;16.67;81.39
71996;BME280;59862;47.732;7.346;2022-08-16T03:45:11;97399.67;;;16.66;81.56
71996;BME280;59862;47.732;7.346;2022-08-16T03:47:40;97401.05;;;16.66;81.56
71996;BME280;59862;47.732;7.346;2022-08-16T03:50:08;97404.01;;;16.64;81.49
71996;BME280;59862;47.732;7.346;2022-08-16T03:52:35;97401.05;;;16.66;81.37
71996;BME280;59862;47.732;7.346;2022-08-16T03:55:04;97396.27;;;16.63;81.58
71996;BME280;59862;47.732;7.346;2022-08-16T03:57:32;97395.68;;;16.64;81.65
71996;BME280;59862;47.732;7.346;2022-08-16T04:00:00;97397.27;;;16.65;81.74
71996;BME280;59862;47.732;7.346;2022-08-16T04:02:29;97392.13;;;16.60;81.69
71996;BME280;59862;47.732;7.346;2022-08-16T04:04:57;97389.75;;;16.58;81.83
71996;BME280;59862;47.732;7.346;2022-08-16T04:07:24;97396.88;;;16.59;81.92
71996;BME280;59862;47.732;7.346;2022-08-16T04:09:51;97389.75;;;16.58;81.75
71996;BME280;59862;47.732;7.346;2022-08-16T04:12:19;97389.55;;;16.68;81.46
71996;BME280;59862;47.732;7.346;2022-08-16T04:14:47;97385.19;;;16.67;81.27
71996;BME280;59862;47.732;7.346;2022-08-16T04:17:15;97385.36;;;16.64;81.37
71996;BME280;59862;47.732;7.346;2022-08-16T04:19:43;97392.70;;;16.63;81.16
71996;BME280;59862;47.732;7.346;2022-08-16T04:22:11;97388.73;;;16.64;81.14
71996;BME280;59862;47.732;7.346;2022-08-16T04:24:39;97384.58;;;16.64;80.99
71996;BME280;59862;47.732;7.346;2022-08-16T04:27:07;97383.41;;;16.58;80.92
71996;BME280;59862;47.732;7.346;2022-08-16T04:29:34;97397.88;;;16.61;81.01
71996;BME280;59862;47.732;7.346;2022-08-16T04:32:03;97395.10;;;16.68;80.88
71996;BME280;59862;47.732;7.346;2022-08-16T04:34:33;97391.70;;;16.75;80.59
71996;BME280;59862;47.732;7.346;2022-08-16T04:37:01;97400.23;;;16.76;80.52
71996;BME280;59862;47.732;7.346;2022-08-16T04:39:32;97402.62;;;16.74;80.16
71996;BME280;59862;47.732;7.346;2022-08-16T04:42:00;97401.42;;;16.75;80.30
71996;BME280;59862;47.732;7.346;2022-08-16T04:44:28;97401.01;;;16.80;79.82
71996;BME280;59862;47.732;7.346;2022-08-16T04:46:55;97400.22;;;16.80;79.63
71996;BME280;59862;47.732;7.346;2022-08-16T04:49:23;97405.59;;;16.75;79.70
71996;BME280;59862;47.732;7.346;2022-08-16T04:51:51;97403.00;;;16.76;79.92
71996;BME280;59862;47.732;7.346;2022-08-16T04:54:18;97405.16;;;16.84;79.81
71996;BME280;59862;47.732;7.346;2022-08-16T04:56:46;97405.34;;;16.89;79.74
71996;BME280;59862;47.732;7.346;2022-08-16T04:59:14;97408.52;;;16.94;79.35
71996;BME280;59862;47.732;7.346;2022-08-16T05:01:41;97412.88;;;16.95;79.16
71996;BME280;59862;47.732;7.346;2022-08-16T05:04:09;97410.69;;;16.98;78.98
71996;BME280;59862;47.732;7.346;2022-08-16T05:06:36;97413.25;;;17.01;78.75
71996;BME280;59862;47.732;7.346;2022-08-16T05:09:04;97414.66;;;16.97;78.72
71996;BME280;59862;47.732;7.346;2022-08-16T05:11:31;97414.25;;;16.99;78.65
71996;BME280;59862;47.732;7.346;2022-08-16T05:13:59;97416.44;;;16.99;78.59
71996;BME280;59862;47.732;7.346;2022-08-16T05:16:29;97417.61;;;17.02;78.52
71996;BME280;59862;47.732;7.346;2022-08-16T05:18:58;97409.87;;;17.01;78.44
71996;BME280;59862;47.732;7.346;2022-08-16T05:21:28;97418.62;;;17.00;78.57
71996;BME280;59862;47.732;7.346;2022-08-16T05:23:57;97424.16;;;17.03;78.47
71996;BME280;59862;47.732;7.346;2022-08-16T05:26:27;97412.25;;;17.03;78.33
71996;BME280;59862;47.732;7.346;2022-08-16T05:28:57;97412.45;;;17.04;78.35
71996;BME280;59862;47.732;7.346;2022-08-16T05:31:29;97412.22;;;17.10;78.18
71996;BME280;59862;47.732;7.346;2022-08-16T05:33:58;97409.81;;;17.16;78.02
71996;BME280;59862;47.732;7.346;2022-08-16T05:36:27;97407.38;;;17.25;77.73
71996;BME280;59862;47.732;7.346;2022-08-16T05:38:54;97403.33;;;17.40;77.52
71996;BME280;59862;47.732;7.346;2022-08-16T05:41:22;97404.44;;;17.57;77.22
71996;BME280;59862;47.732;7.346;2022-08-16T05:43:49;97408.78;;;17.61;76.43
71996;BME280;59862;47.732;7.346;2022-08-16T05:46:17;97412.71;;;17.71;76.16
71996;BME280;59862;47.732;7.346;2022-08-16T05:48:45;97404.83;;;17.88;75.98
71996;BME280;59862;47.732;7.346;2022-08-16T05:51:13;97410.91;;;17.98;75.03
71996;BME280;59862;47.732;7.346;2022-08-16T05:53:40;97412.02;;;18.08;74.91
71996;BME280;59862;47.732;7.346;2022-08-16T05:56:08;97424.36;;;18.07;74.66
71996;BME280;59862;47.732;7.346;2022-08-16T05:58:35;97425.80;;;18.00;74.59
71996;BME280;59862;47.732;7.346;2022-08-16T06:01:03;97431.13;;;18.06;74.61
71996;BME280;59862;47.732;7.346;2022-08-16T06:03:31;97432.45;;;18.13;74.30
71996;BME280;59862;47.732;7.346;2022-08-16T06:05:58;97441.16;;;17.93;74.25
71996;BME280;59862;47.732;7.346;2022-08-16T06:08:26;97435.62;;;17.89;74.72
71996;BME280;59862;47.732;7.346;2022-08-16T06:10:54;97434.70;;;17.81;74.82
71996;BME280;59862;47.732;7.346;2022-08-16T06:13:22;97433.44;;;17.89;75.04
71996;BME280;59862;47.732;7.346;2022-08-16T06:15:49;97422.23;;;17.99;74.86
71996;BME280;59862;47.732;7.346;2022-08-16T06:18:18;97431.72;;;18.05;74.51
71996;BME280;59862;47.732;7.346;2022-08-16T06:20:45;97438.23;;;18.11;74.52
71996;BME280;59862;47.732;7.346;2022-08-16T06:23:13;97440.20;;;18.14;74.47
71996;BME280;59862;47.732;7.346;2022-08-16T06:25:41;97442.73;;;18.20;74.37
71996;BME280;59862;47.732;7.346;2022-08-16T06:28:10;97438.15;;;18.25;74.34
71996;BME280;59862;47.732;7.346;2022-08-16T06:30:39;97439.31;;;18.27;74.18
71996;BME280;59862;47.732;7.346;2022-08-16T06:33:07;97440.20;;;18.40;73.93
71996;BME280;59862;47.732;7.346;2022-08-16T06:35:36;97444.08;;;18.49;73.62
71996;BME280;59862;47.732;7.346;2022-08-16T06:38:03;97443.22;;;18.56;73.25
71996;BME280;59862;47.732;7.346;2022-08-16T06:40:31;97436.07;;;18.55;73.09
71996;BME280;59862;47.732;7.346;2022-08-16T06:42:59;97437.02;;;18.60;73.06
71996;BME280;59862;47.732;7.346;2022-08-16T06:45:27;97439.95;;;18.68;72.92
71996;BME280;59862;47.732;7.346;2022-08-16T06:47:54;97441.63;;;18.77;72.77
71996;BME280;59862;47.732;7.346;2022-08-16T06:50:23;97446.85;;;18.94;71.97
71996;BME280;59862;47.732;7.346;2022-08-16T06:52:50;97437.80;;;19.02;71.37
71996;BME280;59862;47.732;7.346;2022-08-16T06:55:18;97442.92;;;19.07;71.00
71996;BME280;59862;47.732;7.346;2022-08-16T06:57:45;97432.37;;;19.06;70.85
71996;BME280;59862;47.732;7.346;2022-08-16T07:00:15;97434.94;;;19.24;70.82
71996;BME280;59862;47.732;7.346;2022-08-16T07:02:44;97429.45;;;19.32;70.33
71996;BME280;59862;47.732;7.346;2022-08-16T07:05:14;97427.50;;;19.44;69.43
71996;BME280;59862;47.732;7.346;2022-08-16T07:07:46;97436.38;;;19.54;69.51
71996;BME280;59862;47.732;7.346;2022-08-16T07:10:17;97436.70;;;19.60;68.79
71996;BME280;59862;47.732;7.346;2022-08-16T07:12:45;97431.05;;;19.79;69.19
71996;BME280;59862;47.732;7.346;2022-08-16T07:15:14;97434.34;;;19.97;68.59
71996;BME280;59862;47.732;7.346;2022-08-16T07:17:41;97435.48;;;19.88;68.12
71996;BME280;59862;47.732;7.346;2022-08-16T07:20:10;97439.14;;;19.97;67.58
71996;BME280;59862;47.732;7.346;2022-08-16T07:22:39;97430.66;;;20.15;67.36
71996;BME280;59862;47.732;7.346;2022-08-16T07:25:12;97429.97;;;20.35;66.57
71996;BME280;59862;47.732;7.346;2022-08-16T07:27:40;97432.72;;;20.50;66.00
71996;BME280;59862;47.732;7.346;2022-08-16T07:30:11;97436.85;;;20.42;65.04
71996;BME280;59862;47.732;7.346;2022-08-16T07:32:39;97441.16;;;20.58;65.74
71996;BME280;59862;47.732;7.346;2022-08-16T07:35:07;97441.36;;;20.79;65.46
71996;BME280;59862;47.732;7.346;2022-08-16T07:37:35;97439.36;;;20.91;65.19
71996;BME280;59862;47.732;7.346;2022-08-16T07:40:03;97432.66;;;20.97;64.24
71996;BME280;59862;47.732;7.346;2022-08-16T07:42:31;97419.08;;;21.07;63.94
71996;BME280;59862;47.732;7.346;2022-08-16T07:44:58;97431.98;;;21.20;64.32
71996;BME280;59862;47.732;7.346;2022-08-16T07:47:26;97426.19;;;21.31;63.44
71996;BME280;59862;47.732;7.346;2022-08-16T07:49:54;97434.15;;;21.33;63.33
71996;BME280;59862;47.732;7.346;2022-08-16T07:52:22;97438.95;;;21.52;62.71
71996;BME280;59862;47.732;7.346;2022-08-16T07:54:50;97443.08;;;21.56;61.77
71996;BME280;59862;47.732;7.346;2022-08-16T07:57:17;97444.20;;;21.18;62.13
71996;BME280;59862;47.732;7.346;2022-08-16T07:59:44;97441.67;;;21.36;62.59
71996;BME280;59862;47.732;7.346;2022-08-16T08:02:12;97445.01;;;21.59;62.06
71996;BME280;59862;47.732;7.346;2022-08-16T08:04:40;97456.95;;;21.79;61.79
71996;BME280;59862;47.732;7.346;2022-08-16T08:07:08;97452.86;;;22.00;60.69
71996;BME280;59862;47.732;7.346;2022-08-16T08:09:37;97455.47;;;22.27;59.99
71996;BME280;59862;47.732;7.346;2022-08-16T08:12:05;97456.88;;;22.35;58.32
71996;BME280;59862;47.732;7.346;2022-08-16T08:14:32;97463.52;;;22.33;58.78
71996;BME280;59862;47.732;7.346;2022-08-16T08:17:00;97453.53;;;22.48;58.64
71996;BME280;59862;47.732;7.346;2022-08-16T08:19:29;97451.94;;;22.63;58.77
71996;BME280;59862;47.732;7.346;2022-08-16T08:21:56;97459.88;;;23.05;58.18
71996;BME280;59862;47.732;7.346;2022-08-16T08:24:24;97458.27;;;23.33;56.30
71996;BME280;59862;47.732;7.346;2022-08-16T08:26:54;97463.61;;;23.44;56.13
71996;BME280;59862;47.732;7.346;2022-08-16T08:29:23;97471.19;;;23.60;56.56
71996;BME280;59862;47.732;7.346;2022-08-16T08:31:52;97462.06;;;23.89;55.61
71996;BME280;59862;47.732;7.346;2022-08-16T08:34:21;97464.23;;;24.11;55.26
71996;BME280;59862;47.732;7.346;2022-08-16T08:36:49;97469.34;;;24.20;53.65
71996;BME280;59862;47.732;7.346;2022-08-16T08:39:17;97468.57;;;24.32;53.46
71996;BME280;59862;47.732;7.346;2022-08-16T08:41:45;97473.94;;;24.52;51.83
71996;BME280;59862;47.732;7.346;2022-08-16T08:44:13;97480.44;;;24.62;52.07
71996;BME280;59862;47.732;7.346;2022-08-16T08:46:41;97480.80;;;24.51;51.83
71996;BME280;59862;47.732;7.346;2022-08-16T08:49:08;97474.28;;;24.84;52.01
71996;BME280;59862;47.732;7.346;2022-08-16T08:51:36;97466.62;;;25.19;51.75
71996;BME280;59862;47.732;7.346;2022-08-16T08:54:07;97471.89;;;25.52;50.08
71996;BME280;59862;47.732;7.346;2022-08-16T08:56:36;97471.16;;;25.60;48.88
71996;BME280;59862;47.732;7.346;2022-08-16T08:59:06;97472.00;;;25.66;48.50
71996;BME280;59862;47.732;7.346;2022-08-16T09:01:36;97471.83;;;25.91;48.47
71996;BME280;59862;47.732;7.346;2022-08-16T09:04:05;97468.34;;;26.13;49.05
71996;BME280;59862;47.732;7.346;2022-08-16T09:06:34;97472.02;;;26.32;48.32
71996;BME280;59862;47.732;7.346;2022-08-16T09:09:03;97471.22;;;26.27;47.21
71996;BME280;59862;47.732;7.346;2022-08-16T09:11:32;97467.44;;;26.21;46.44
71996;BME280;59862;47.732;7.346;2022-08-16T09:14:02;97464.48;;;26.29;47.69
71996;BME280;59862;47.732;7.346;2022-08-16T09:16:30;97465.95;;;26.38;47.80
71996;BME280;59862;47.732;7.346;2022-08-16T09:18:59;97467.48;;;26.79;47.27
71996;BME280;59862;47.732;7.346;2022-08-16T09:21:27;97469.56;;;27.11;44.77
71996;BME280;59862;47.732;7.346;2022-08-16T09:23:54;97467.38;;;27.33;43.18
71996;BME280;59862;47.732;7.346;2022-08-16T09:26:22;97467.17;;;26.82;44.50
71996;BME280;59862;47.732;7.346;2022-08-16T09:28:49;97476.74;;;26.94;45.29
71996;BME280;59862;47.732;7.346;2022-08-16T09:31:17;97469.41;;;27.19;44.42
71996;BME280;59862;47.732;7.346;2022-08-16T09:33:45;97471.14;;;27.62;43.53
71996;BME280;59862;47.732;7.346;2022-08-16T09:36:13;97476.55;;;28.02;43.23
71996;BME280;59862;47.732;7.346;2022-08-16T09:38:42;97471.46;;;27.37;43.76
71996;BME280;59862;47.732;7.346;2022-08-16T09:41:11;97472.39;;;27.47;44.63
71996;BME280;59862;47.732;7.346;2022-08-16T09:43:39;97470.17;;;27.74;42.07
71996;BME280;59862;47.732;7.346;2022-08-16T09:46:07;97478.47;;;27.83;42.16
71996;BME280;59862;47.732;7.346;2022-08-16T09:48:35;97470.48;;;27.58;43.75
71996;BME280;59862;47.732;7.346;2022-08-16T09:51:05;97479.39;;;27.89;43.32
71996;BME280;59862;47.732;7.346;2022-08-16T09:53:33;97475.36;;;28.23;40.58
71996;BME280;59862;47.732;7.346;2022-08-16T09:56:01;97487.02;;;28.16;40.66
71996;BME280;59862;47.732;7.346;2022-08-16T09:58:30;97481.50;;;28.92;39.85
71996;BME280;59862;47.732;7.346;2022-08-16T10:00:58;97485.71;;;29.74;37.60
71996;BME280;59862;47.732;7.346;2022-08-16T10:03:25;97472.93;;;29.93;36.53
71996;BME280;59862;47.732;7.346;2022-08-16T10:05:52;97473.21;;;30.24;35.69
71996;BME280;59862;47.732;7.346;2022-08-16T10:08:20;97475.92;;;30.83;36.15
71996;BME280;59862;47.732;7.346;2022-08-16T10:10:47;97473.09;;;30.94;35.28
71996;BME280;59862;47.732;7.346;2022-08-16T10:13:33;97472.51;;;31.50;34.22
71996;BME280;59862;47.732;7.346;2022-08-16T10:16:00;97474.89;;;32.35;32.14
71996;BME280;59862;47.732;7.346;2022-08-16T10:18:29;97469.69;;;32.50;32.21
71996;BME280;59862;47.732;7.346;2022-08-16T10:20:57;97464.52;;;31.65;33.60
71996;BME280;59862;47.732;7.346;2022-08-16T10:23:25;97470.34;;;31.66;32.98
71996;BME280;59862;47.732;7.346;2022-08-16T10:25:55;97471.32;;;32.25;32.15
71996;BME280;59862;47.732;7.346;2022-08-16T10:28:23;97460.05;;;32.10;32.36
71996;BME280;59862;47.732;7.346;2022-08-16T10:30:51;97463.84;;;32.64;31.00
71996;BME280;59862;47.732;7.346;2022-08-16T10:33:18;97467.45;;;33.07;30.87
71996;BME280;59862;47.732;7.346;2022-08-16T10:35:46;97463.77;;;31.90;32.06
71996;BME280;59862;47.732;7.346;2022-08-16T10:38:14;97459.19;;;31.36;32.07
71996;BME280;59862;47.732;7.346;2022-08-16T10:40:42;97460.14;;;32.74;30.81
71996;BME280;59862;47.732;7.346;2022-08-16T10:43:12;97459.38;;;33.65;29.00
71996;BME280;59862;47.732;7.346;2022-08-16T10:45:39;97461.91;;;33.35;29.19
71996;BME280;59862;47.732;7.346;2022-08-16T10:48:09;97456.39;;;33.64;28.73
71996;BME280;59862;47.732;7.346;2022-08-16T10:50:37;97452.59;;;33.40;29.42
71996;BME280;59862;47.732;7.346;2022-08-16T10:53:05;97451.30;;;34.47;28.12
71996;BME280;59862;47.732;7.346;2022-08-16T10:55:36;97458.30;;;33.95;28.29
71996;BME280;59862;47.732;7.346;2022-08-16T10:58:06;97454.39;;;34.60;27.95
71996;BME280;59862;47.732;7.346;2022-08-16T11:00:35;97457.58;;;34.80;28.00
71996;BME280;59862;47.732;7.346;2022-08-16T11:03:06;97462.87;;;34.99;27.08
71996;BME280;59862;47.732;7.346;2022-08-16T11:05:37;97456.78;;;35.36;26.85
71996;BME280;59862;47.732;7.346;2022-08-16T11:08:06;97455.05;;;34.20;28.31
71996;BME280;59862;47.732;7.346;2022-08-16T11:10:40;97455.45;;;35.03;27.70
71996;BME280;59862;47.732;7.346;2022-08-16T11:13:07;97448.63;;;35.51;25.88
71996;BME280;59862;47.732;7.346;2022-08-16T11:15:36;97447.34;;;35.70;26.19
71996;BME280;59862;47.732;7.346;2022-08-16T11:18:05;97439.56;;;35.65;24.89
71996;BME280;59862;47.732;7.346;2022-08-16T11:20:34;97443.47;;;35.15;26.36
71996;BME280;59862;47.732;7.346;2022-08-16T11:23:01;97439.40;;;35.52;25.89
71996;BME280;59862;47.732;7.346;2022-08-16T11:25:31;97443.05;;;35.70;25.41
71996;BME280;59862;47.732;7.346;2022-08-16T11:28:00;97442.64;;;35.26;25.68
71996;BME280;59862;47.732;7.346;2022-08-16T11:30:29;97440.56;;;34.81;26.33
71996;BME280;59862;47.732;7.346;2022-08-16T11:32:57;97438.55;;;34.64;27.15
71996;BME280;59862;47.732;7.346;2022-08-16T11:35:28;97444.22;;;35.21;25.74
71996;BME280;59862;47.732;7.346;2022-08-16T11:37:59;97435.72;;;34.09;26.98
71996;BME280;59862;47.732;7.346;2022-08-16T11:40:29;97435.33;;;35.31;25.77
71996;BME280;59862;47.732;7.346;2022-08-16T11:42:57;97434.03;;;36.14;25.06
71996;BME280;59862;47.732;7.346;2022-08-16T11:45:25;97433.29;;;36.92;24.17
71996;BME280;59862;47.732;7.346;2022-08-16T11:47:53;97431.83;;;37.29;23.55
71996;BME280;59862;47.732;7.346;2022-08-16T11:50:21;97422.41;;;38.10;21.92
71996;BME280;59862;47.732;7.346;2022-08-16T11:52:49;97429.27;;;38.39;21.15
71996;BME280;59862;47.732;7.346;2022-08-16T11:55:17;97421.73;;;38.04;21.12
71996;BME280;59862;47.732;7.346;2022-08-16T11:57:45;97418.06;;;37.71;22.33
71996;BME280;59862;47.732;7.346;2022-08-16T12:00:14;97423.81;;;38.35;21.61
71996;BME280;59862;47.732;7.346;2022-08-16T12:02:43;97423.23;;;39.28;20.43
71996;BME280;59862;47.732;7.346;2022-08-16T12:05:13;97419.13;;;38.97;20.23
71996;BME280;59862;47.732;7.346;2022-08-16T12:07:41;97412.48;;;39.36;19.76
71996;BME280;59862;47.732;7.346;2022-08-16T12:10:12;97412.42;;;39.15;20.02
71996;BME280;59862;47.732;7.346;2022-08-16T12:12:41;97417.31;;;39.47;20.18
71996;BME280;59862;47.732;7.346;2022-08-16T12:15:10;97416.20;;;39.57;19.99
71996;BME280;59862;47.732;7.346;2022-08-16T12:17:39;97410.51;;;40.47;19.07
71996;BME280;59862;47.732;7.346;2022-08-16T12:20:11;97408.45;;;41.12;17.74
71996;BME280;59862;47.732;7.346;2022-08-16T12:22:38;97414.80;;;41.76;16.98
71996;BME280;59862;47.732;7.346;2022-08-16T12:25:09;97411.03;;;41.53;17.77
71996;BME280;59862;47.732;7.346;2022-08-16T12:27:37;97410.78;;;41.94;16.48
71996;BME280;59862;47.732;7.346;2022-08-16T12:30:07;97413.35;;;41.76;16.58
71996;BME280;59862;47.732;7.346;2022-08-16T12:32:35;97407.55;;;42.05;16.81
71996;BME280;59862;47.732;7.346;2022-08-16T12:35:04;97401.72;;;41.61;17.00
71996;BME280;59862;47.732;7.346;2022-08-16T12:37:33;97398.58;;;40.85;16.58
71996;BME280;59862;47.732;7.346;2022-08-16T12:40:00;97403.44;;;39.66;18.11
71996;BME280;59862;47.732;7.346;2022-08-16T12:42:28;97403.94;;;39.84;17.78
71996;BME280;59862;47.732;7.346;2022-08-16T12:44:57;97401.05;;;40.11;17.63
71996;BME280;59862;47.732;7.346;2022-08-16T12:47:24;97401.03;;;41.10;16.26
71996;BME280;59862;47.732;7.346;2022-08-16T12:50:10;97405.43;;;42.21;16.40
71996;BME280;59862;47.732;7.346;2022-08-16T12:52:37;97393.86;;;43.45;15.67
71996;BME280;59862;47.732;7.346;2022-08-16T12:55:05;97393.86;;;43.45;15.67
71996;BME280;59862;47.732;7.346;2022-08-16T12:57:32;97395.44;;;43.95;14.67
71996;BME280;59862;47.732;7.346;2022-08-16T13:00:00;97390.86;;;43.20;15.03
71996;BME280;59862;47.732;7.346;2022-08-16T13:02:27;97381.78;;;43.48;14.15
71996;BME280;59862;47.732;7.346;2022-08-16T13:04:55;97388.86;;;43.14;14.95
71996;BME280;59862;47.732;7.346;2022-08-16T13:07:22;97386.71;;;44.52;13.35
71996;BME280;59862;47.732;7.346;2022-08-16T13:09:49;97379.11;;;43.82;13.81